sensor_id;sensor_type;location;lat;lon;timestamp;P1;durP1;ratioP1;P2;durP2;ratioP2
47659;SDS011;33403;43.608;1.458;2022-09-09T00:01:59;5.47;;;2.30;;
47659;SDS011;33403;43.608;1.458;2022-09-09T00:04:12;6.00;;;2.15;;
47659;SDS011;33403;43.608;1.458;2022-09-09T00:06:46;5.65;;;1.90;;
47659;SDS011;33403;43.608;1.458;2022-09-09T00:09:17;4.45;;;2.03;;
47659;SDS011;33403;43.608;1.458;2022-09-09T00:12:02;5.57;;;2.00;;
47659;SDS011;33403;43.608;1.458;2022-09-09T00:16:58;6.68;;;2.15;;
47659;SDS011;33403;43.608;1.458;2022-09-09T00:19:36;5.15;;;1.83;;
47659;SDS011;33403;43.608;1.458;2022-09-09T00:22:18;4.97;;;2.00;;
47659;SDS011;33403;43.608;1.458;2022-09-09T00:24:49;3.80;;;1.90;;
47659;SDS011;33403;43.608;1.458;2022-09-09T00:27:23;3.88;;;2.17;;
47659;SDS011;33403;43.608;1.458;2022-09-09T00:29:53;2.35;;;1.80;;
47659;SDS011;33403;43.608;1.458;2022-09-09T00:32:20;6.03;;;1.80;;
47659;SDS011;33403;43.608;1.458;2022-09-09T00:34:48;3.90;;;2.00;;
47659;SDS011;33403;43.608;1.458;2022-09-09T00:37:15;4.22;;;1.92;;
47659;SDS011;33403;43.608;1.458;2022-09-09T00:39:42;3.70;;;1.80;;
47659;SDS011;33403;43.608;1.458;2022-09-09T00:42:13;2.00;;;1.50;;
47659;SDS011;33403;43.608;1.458;2022-09-09T00:44:46;3.70;;;1.98;;
47659;SDS011;33403;43.608;1.458;2022-09-09T00:49:52;4.47;;;2.00;;
47659;SDS011;33403;43.608;1.458;2022-09-09T00:57:34;2.67;;;1.92;;
47659;SDS011;33403;43.608;1.458;2022-09-09T01:00:21;5.38;;;1.90;;
47659;SDS011;33403;43.608;1.458;2022-09-09T01:05:22;4.15;;;1.70;;
47659;SDS011;33403;43.608;1.458;2022-09-09T01:07:52;3.38;;;1.88;;
47659;SDS011;33403;43.608;1.458;2022-09-09T01:10:39;5.82;;;2.00;;
47659;SDS011;33403;43.608;1.458;2022-09-09T01:13:11;3.72;;;1.90;;
47659;SDS011;33403;43.608;1.458;2022-09-09T01:15:39;4.78;;;2.00;;
47659;SDS011;33403;43.608;1.458;2022-09-09T01:18:08;6.32;;;2.10;;
47659;SDS011;33403;43.608;1.458;2022-09-09T01:21:20;5.57;;;1.85;;
47659;SDS011;33403;43.608;1.458;2022-09-09T01:28:40;4.55;;;2.00;;
47659;SDS011;33403;43.608;1.458;2022-09-09T01:31:06;3.47;;;1.80;;
47659;SDS011;33403;43.608;1.458;2022-09-09T01:33:34;4.95;;;1.80;;
47659;SDS011;33403;43.608;1.458;2022-09-09T01:36:03;2.88;;;2.08;;
47659;SDS011;33403;43.608;1.458;2022-09-09T01:38:29;2.72;;;1.60;;
47659;SDS011;33403;43.608;1.458;2022-09-09T01:40:57;3.08;;;1.65;;
47659;SDS011;33403;43.608;1.458;2022-09-09T01:43:23;3.33;;;1.90;;
47659;SDS011;33403;43.608;1.458;2022-09-09T01:45:50;3.47;;;1.52;;
47659;SDS011;33403;43.608;1.458;2022-09-09T01:48:19;3.00;;;1.42;;
47659;SDS011;33403;43.608;1.458;2022-09-09T01:53:32;2.70;;;1.40;;
47659;SDS011;33403;43.608;1.458;2022-09-09T02:04:02;5.10;;;1.63;;
47659;SDS011;33403;43.608;1.458;2022-09-09T02:06:36;4.53;;;1.40;;
47659;SDS011;33403;43.608;1.458;2022-09-09T02:09:04;1.95;;;1.30;;
47659;SDS011;33403;43.608;1.458;2022-09-09T02:11:31;3.95;;;1.80;;
47659;SDS011;33403;43.608;1.458;2022-09-09T02:14:18;2.75;;;1.50;;
47659;SDS011;33403;43.608;1.458;2022-09-09T02:16:48;4.32;;;1.63;;
47659;SDS011;33403;43.608;1.458;2022-09-09T02:19:23;4.80;;;1.60;;
47659;SDS011;33403;43.608;1.458;2022-09-09T02:21:50;4.90;;;1.60;;
47659;SDS011;33403;43.608;1.458;2022-09-09T02:24:18;2.72;;;1.60;;
47659;SDS011;33403;43.608;1.458;2022-09-09T02:26:44;4.60;;;1.70;;
47659;SDS011;33403;43.608;1.458;2022-09-09T02:29:13;2.42;;;1.60;;
47659;SDS011;33403;43.608;1.458;2022-09-09T02:31:41;3.70;;;1.80;;
47659;SDS011;33403;43.608;1.458;2022-09-09T02:34:07;1.88;;;1.50;;
47659;SDS011;33403;43.608;1.458;2022-09-09T02:36:36;3.92;;;1.60;;
47659;SDS011;33403;43.608;1.458;2022-09-09T02:39:03;2.47;;;1.50;;
47659;SDS011;33403;43.608;1.458;2022-09-09T02:41:31;3.40;;;1.58;;
47659;SDS011;33403;43.608;1.458;2022-09-09T02:44:15;3.47;;;1.60;;
47659;SDS011;33403;43.608;1.458;2022-09-09T02:52:02;3.00;;;1.50;;
47659;SDS011;33403;43.608;1.458;2022-09-09T02:54:34;4.80;;;1.90;;
47659;SDS011;33403;43.608;1.458;2022-09-09T02:57:20;3.20;;;1.50;;
47659;SDS011;33403;43.608;1.458;2022-09-09T02:59:47;3.30;;;1.70;;
47659;SDS011;33403;43.608;1.458;2022-09-09T03:02:13;3.08;;;1.58;;
47659;SDS011;33403;43.608;1.458;2022-09-09T03:04:40;2.58;;;1.42;;
47659;SDS011;33403;43.608;1.458;2022-09-09T03:07:09;2.42;;;1.45;;
47659;SDS011;33403;43.608;1.458;2022-09-09T03:09:35;4.30;;;1.50;;
47659;SDS011;33403;43.608;1.458;2022-09-09T03:12:01;3.35;;;1.73;;
47659;SDS011;33403;43.608;1.458;2022-09-09T03:14:29;2.88;;;1.30;;
47659;SDS011;33403;43.608;1.458;2022-09-09T03:16:56;2.45;;;1.50;;
47659;SDS011;33403;43.608;1.458;2022-09-09T03:19:25;2.17;;;1.50;;
47659;SDS011;33403;43.608;1.458;2022-09-09T03:21:52;3.33;;;1.70;;
47659;SDS011;33403;43.608;1.458;2022-09-09T03:24:19;7.10;;;1.67;;
47659;SDS011;33403;43.608;1.458;2022-09-09T03:26:45;3.47;;;1.60;;
47659;SDS011;33403;43.608;1.458;2022-09-09T03:29:12;3.90;;;1.63;;
47659;SDS011;33403;43.608;1.458;2022-09-09T03:31:38;3.00;;;1.67;;
47659;SDS011;33403;43.608;1.458;2022-09-09T03:34:05;3.42;;;1.50;;
47659;SDS011;33403;43.608;1.458;2022-09-09T03:36:31;3.08;;;1.48;;
47659;SDS011;33403;43.608;1.458;2022-09-09T03:38:57;3.78;;;1.30;;
47659;SDS011;33403;43.608;1.458;2022-09-09T03:41:24;2.10;;;1.40;;
47659;SDS011;33403;43.608;1.458;2022-09-09T03:43:51;3.08;;;1.50;;
47659;SDS011;33403;43.608;1.458;2022-09-09T03:46:20;2.25;;;1.52;;
47659;SDS011;33403;43.608;1.458;2022-09-09T03:48:46;3.03;;;1.70;;
47659;SDS011;33403;43.608;1.458;2022-09-09T03:51:12;5.95;;;1.70;;
47659;SDS011;33403;43.608;1.458;2022-09-09T03:53:38;3.10;;;1.35;;
47659;SDS011;33403;43.608;1.458;2022-09-09T03:56:05;2.40;;;1.40;;
47659;SDS011;33403;43.608;1.458;2022-09-09T03:58:35;3.78;;;1.30;;
47659;SDS011;33403;43.608;1.458;2022-09-09T04:01:05;3.08;;;1.55;;
47659;SDS011;33403;43.608;1.458;2022-09-09T04:03:33;2.35;;;1.38;;
47659;SDS011;33403;43.608;1.458;2022-09-09T04:06:00;3.50;;;1.48;;
47659;SDS011;33403;43.608;1.458;2022-09-09T04:08:27;3.42;;;1.45;;
47659;SDS011;33403;43.608;1.458;2022-09-09T04:10:53;2.47;;;1.45;;
47659;SDS011;33403;43.608;1.458;2022-09-09T04:13:23;2.63;;;1.65;;
47659;SDS011;33403;43.608;1.458;2022-09-09T04:15:56;3.20;;;1.30;;
47659;SDS011;33403;43.608;1.458;2022-09-09T04:18:22;2.72;;;1.50;;
47659;SDS011;33403;43.608;1.458;2022-09-09T04:20:49;2.22;;;1.55;;
47659;SDS011;33403;43.608;1.458;2022-09-09T04:23:16;2.70;;;1.33;;
47659;SDS011;33403;43.608;1.458;2022-09-09T04:25:46;1.98;;;1.30;;
47659;SDS011;33403;43.608;1.458;2022-09-09T04:28:13;3.05;;;1.60;;
47659;SDS011;33403;43.608;1.458;2022-09-09T04:30:39;3.15;;;1.60;;
47659;SDS011;33403;43.608;1.458;2022-09-09T04:33:05;3.05;;;1.50;;
47659;SDS011;33403;43.608;1.458;2022-09-09T04:35:31;2.38;;;1.40;;
47659;SDS011;33403;43.608;1.458;2022-09-09T04:37:58;2.75;;;1.48;;
47659;SDS011;33403;43.608;1.458;2022-09-09T04:40:24;4.10;;;1.50;;
47659;SDS011;33403;43.608;1.458;2022-09-09T04:42:50;3.20;;;1.40;;
47659;SDS011;33403;43.608;1.458;2022-09-09T04:45:16;5.57;;;1.50;;
47659;SDS011;33403;43.608;1.458;2022-09-09T04:47:43;2.20;;;1.60;;
47659;SDS011;33403;43.608;1.458;2022-09-09T04:50:09;2.75;;;1.50;;
47659;SDS011;33403;43.608;1.458;2022-09-09T04:52:35;2.88;;;1.70;;
47659;SDS011;33403;43.608;1.458;2022-09-09T04:55:02;2.80;;;1.40;;
47659;SDS011;33403;43.608;1.458;2022-09-09T04:57:28;2.75;;;1.42;;
47659;SDS011;33403;43.608;1.458;2022-09-09T04:59:56;4.10;;;1.60;;
47659;SDS011;33403;43.608;1.458;2022-09-09T05:02:22;2.78;;;1.20;;
47659;SDS011;33403;43.608;1.458;2022-09-09T05:04:48;3.28;;;1.60;;
47659;SDS011;33403;43.608;1.458;2022-09-09T05:07:15;2.60;;;1.27;;
47659;SDS011;33403;43.608;1.458;2022-09-09T05:09:41;1.83;;;1.40;;
47659;SDS011;33403;43.608;1.458;2022-09-09T05:12:07;4.22;;;1.70;;
47659;SDS011;33403;43.608;1.458;2022-09-09T05:14:33;2.78;;;1.50;;
47659;SDS011;33403;43.608;1.458;2022-09-09T05:17:02;1.50;;;1.20;;
47659;SDS011;33403;43.608;1.458;2022-09-09T05:19:28;3.10;;;1.35;;
47659;SDS011;33403;43.608;1.458;2022-09-09T05:21:56;1.55;;;1.30;;
47659;SDS011;33403;43.608;1.458;2022-09-09T05:24:22;2.47;;;1.63;;
47659;SDS011;33403;43.608;1.458;2022-09-09T05:26:48;5.03;;;1.80;;
47659;SDS011;33403;43.608;1.458;2022-09-09T05:29:14;4.07;;;1.63;;
47659;SDS011;33403;43.608;1.458;2022-09-09T05:31:44;3.25;;;1.58;;
47659;SDS011;33403;43.608;1.458;2022-09-09T05:34:10;4.53;;;1.45;;
47659;SDS011;33403;43.608;1.458;2022-09-09T05:36:36;2.92;;;1.50;;
47659;SDS011;33403;43.608;1.458;2022-09-09T05:39:02;3.33;;;1.52;;
47659;SDS011;33403;43.608;1.458;2022-09-09T05:41:28;5.10;;;2.05;;
47659;SDS011;33403;43.608;1.458;2022-09-09T05:43:55;5.43;;;2.03;;
47659;SDS011;33403;43.608;1.458;2022-09-09T05:46:22;3.67;;;1.70;;
47659;SDS011;33403;43.608;1.458;2022-09-09T05:48:49;2.95;;;1.70;;
47659;SDS011;33403;43.608;1.458;2022-09-09T05:51:17;3.50;;;1.77;;
47659;SDS011;33403;43.608;1.458;2022-09-09T05:53:44;2.38;;;1.65;;
47659;SDS011;33403;43.608;1.458;2022-09-09T05:56:11;4.28;;;1.80;;
47659;SDS011;33403;43.608;1.458;2022-09-09T05:58:37;4.55;;;2.15;;
47659;SDS011;33403;43.608;1.458;2022-09-09T06:03:30;2.70;;;1.80;;
47659;SDS011;33403;43.608;1.458;2022-09-09T06:05:57;2.92;;;1.75;;
47659;SDS011;33403;43.608;1.458;2022-09-09T06:08:23;4.90;;;1.85;;
47659;SDS011;33403;43.608;1.458;2022-09-09T06:10:50;4.95;;;2.03;;
47659;SDS011;33403;43.608;1.458;2022-09-09T06:13:16;3.40;;;1.90;;
47659;SDS011;33403;43.608;1.458;2022-09-09T06:15:52;5.97;;;1.90;;
47659;SDS011;33403;43.608;1.458;2022-09-09T06:18:18;2.97;;;2.10;;
47659;SDS011;33403;43.608;1.458;2022-09-09T06:20:58;3.38;;;1.88;;
47659;SDS011;33403;43.608;1.458;2022-09-09T06:23:25;3.10;;;1.98;;
47659;SDS011;33403;43.608;1.458;2022-09-09T06:25:51;5.47;;;1.92;;
47659;SDS011;33403;43.608;1.458;2022-09-09T06:28:18;3.35;;;1.80;;
47659;SDS011;33403;43.608;1.458;2022-09-09T06:30:44;5.28;;;1.60;;
47659;SDS011;33403;43.608;1.458;2022-09-09T06:33:10;4.53;;;1.90;;
47659;SDS011;33403;43.608;1.458;2022-09-09T06:35:36;3.53;;;1.90;;
47659;SDS011;33403;43.608;1.458;2022-09-09T06:38:02;3.53;;;2.00;;
47659;SDS011;33403;43.608;1.458;2022-09-09T06:40:28;3.70;;;2.10;;
47659;SDS011;33403;43.608;1.458;2022-09-09T06:42:58;3.80;;;2.15;;
47659;SDS011;33403;43.608;1.458;2022-09-09T06:45:25;4.40;;;2.20;;
47659;SDS011;33403;43.608;1.458;2022-09-09T06:47:51;3.15;;;1.88;;
47659;SDS011;33403;43.608;1.458;2022-09-09T06:50:20;4.43;;;2.00;;
47659;SDS011;33403;43.608;1.458;2022-09-09T06:52:46;2.95;;;1.90;;
47659;SDS011;33403;43.608;1.458;2022-09-09T06:55:15;4.72;;;1.95;;
47659;SDS011;33403;43.608;1.458;2022-09-09T06:57:43;3.08;;;1.98;;
47659;SDS011;33403;43.608;1.458;2022-09-09T07:00:09;4.35;;;1.98;;
47659;SDS011;33403;43.608;1.458;2022-09-09T07:02:36;3.70;;;2.10;;
47659;SDS011;33403;43.608;1.458;2022-09-09T07:05:04;2.67;;;2.10;;
47659;SDS011;33403;43.608;1.458;2022-09-09T07:07:30;4.70;;;2.33;;
47659;SDS011;33403;43.608;1.458;2022-09-09T07:09:56;4.68;;;2.20;;
47659;SDS011;33403;43.608;1.458;2022-09-09T07:12:23;4.40;;;2.03;;
47659;SDS011;33403;43.608;1.458;2022-09-09T07:14:49;4.38;;;2.33;;
47659;SDS011;33403;43.608;1.458;2022-09-09T07:17:15;6.53;;;2.47;;
47659;SDS011;33403;43.608;1.458;2022-09-09T07:19:41;4.80;;;2.60;;
47659;SDS011;33403;43.608;1.458;2022-09-09T07:22:08;6.30;;;2.40;;
47659;SDS011;33403;43.608;1.458;2022-09-09T07:24:35;4.15;;;2.50;;
47659;SDS011;33403;43.608;1.458;2022-09-09T07:27:02;3.35;;;2.28;;
47659;SDS011;33403;43.608;1.458;2022-09-09T07:29:28;5.93;;;2.53;;
47659;SDS011;33403;43.608;1.458;2022-09-09T07:31:54;5.32;;;2.42;;
47659;SDS011;33403;43.608;1.458;2022-09-09T07:34:20;3.88;;;2.30;;
47659;SDS011;33403;43.608;1.458;2022-09-09T07:36:46;5.05;;;2.40;;
47659;SDS011;33403;43.608;1.458;2022-09-09T07:39:14;5.43;;;2.35;;
47659;SDS011;33403;43.608;1.458;2022-09-09T07:41:44;3.85;;;2.30;;
47659;SDS011;33403;43.608;1.458;2022-09-09T07:44:11;5.22;;;2.50;;
47659;SDS011;33403;43.608;1.458;2022-09-09T07:46:38;5.68;;;2.20;;
47659;SDS011;33403;43.608;1.458;2022-09-09T07:49:07;6.63;;;2.72;;
47659;SDS011;33403;43.608;1.458;2022-09-09T07:51:35;4.97;;;2.10;;
47659;SDS011;33403;43.608;1.458;2022-09-09T07:54:03;4.63;;;2.20;;
47659;SDS011;33403;43.608;1.458;2022-09-09T07:56:29;3.45;;;2.28;;
47659;SDS011;33403;43.608;1.458;2022-09-09T07:58:56;4.93;;;2.22;;
47659;SDS011;33403;43.608;1.458;2022-09-09T08:01:24;5.22;;;2.40;;
47659;SDS011;33403;43.608;1.458;2022-09-09T08:03:58;6.82;;;2.47;;
47659;SDS011;33403;43.608;1.458;2022-09-09T08:06:26;5.57;;;2.40;;
47659;SDS011;33403;43.608;1.458;2022-09-09T08:08:53;3.03;;;2.20;;
47659;SDS011;33403;43.608;1.458;2022-09-09T08:11:20;6.18;;;2.40;;
47659;SDS011;33403;43.608;1.458;2022-09-09T08:13:47;6.28;;;2.50;;
47659;SDS011;33403;43.608;1.458;2022-09-09T08:16:15;5.15;;;2.40;;
47659;SDS011;33403;43.608;1.458;2022-09-09T08:18:41;5.05;;;2.40;;
47659;SDS011;33403;43.608;1.458;2022-09-09T08:23:39;4.85;;;2.45;;
47659;SDS011;33403;43.608;1.458;2022-09-09T08:26:15;5.07;;;2.38;;
47659;SDS011;33403;43.608;1.458;2022-09-09T08:28:43;4.93;;;2.20;;
47659;SDS011;33403;43.608;1.458;2022-09-09T08:33:36;4.60;;;2.10;;
47659;SDS011;33403;43.608;1.458;2022-09-09T08:36:03;4.32;;;2.20;;
47659;SDS011;33403;43.608;1.458;2022-09-09T08:38:29;5.40;;;2.42;;
47659;SDS011;33403;43.608;1.458;2022-09-09T08:40:58;4.65;;;2.22;;
47659;SDS011;33403;43.608;1.458;2022-09-09T08:43:27;3.00;;;2.10;;
47659;SDS011;33403;43.608;1.458;2022-09-09T08:49:02;5.32;;;2.35;;
47659;SDS011;33403;43.608;1.458;2022-09-09T08:51:30;3.75;;;2.25;;
47659;SDS011;33403;43.608;1.458;2022-09-09T08:53:58;5.43;;;2.45;;
47659;SDS011;33403;43.608;1.458;2022-09-09T08:56:25;3.60;;;2.20;;
47659;SDS011;33403;43.608;1.458;2022-09-09T08:58:53;4.85;;;2.20;;
47659;SDS011;33403;43.608;1.458;2022-09-09T09:11:10;4.18;;;1.70;;
47659;SDS011;33403;43.608;1.458;2022-09-09T09:18:38;3.83;;;1.50;;
47659;SDS011;33403;43.608;1.458;2022-09-09T09:21:06;5.07;;;1.33;;
47659;SDS011;33403;43.608;1.458;2022-09-09T09:23:39;3.67;;;1.48;;
47659;SDS011;33403;43.608;1.458;2022-09-09T09:26:07;2.38;;;1.23;;
47659;SDS011;33403;43.608;1.458;2022-09-09T09:28:36;2.92;;;1.30;;
47659;SDS011;33403;43.608;1.458;2022-09-09T09:31:06;2.40;;;1.60;;
47659;SDS011;33403;43.608;1.458;2022-09-09T09:36:14;7.47;;;1.90;;
47659;SDS011;33403;43.608;1.458;2022-09-09T09:39:02;3.10;;;1.80;;
47659;SDS011;33403;43.608;1.458;2022-09-09T09:41:38;3.72;;;1.52;;
47659;SDS011;33403;43.608;1.458;2022-09-09T09:44:04;3.50;;;1.98;;
47659;SDS011;33403;43.608;1.458;2022-09-09T09:46:31;4.13;;;1.60;;
47659;SDS011;33403;43.608;1.458;2022-09-09T09:49:01;3.75;;;1.67;;
47659;SDS011;33403;43.608;1.458;2022-09-09T09:51:28;3.97;;;1.60;;
47659;SDS011;33403;43.608;1.458;2022-09-09T09:54:02;4.25;;;1.52;;
47659;SDS011;33403;43.608;1.458;2022-09-09T09:56:30;2.72;;;1.25;;
47659;SDS011;33403;43.608;1.458;2022-09-09T09:58:57;2.42;;;1.25;;
47659;SDS011;33403;43.608;1.458;2022-09-09T10:04:35;3.03;;;1.50;;
47659;SDS011;33403;43.608;1.458;2022-09-09T10:06:36;3.83;;;1.50;;
47659;SDS011;33403;43.608;1.458;2022-09-09T10:09:03;2.80;;;1.60;;
47659;SDS011;33403;43.608;1.458;2022-09-09T10:19:33;3.30;;;1.50;;
47659;SDS011;33403;43.608;1.458;2022-09-09T10:27:15;2.30;;;1.40;;
47659;SDS011;33403;43.608;1.458;2022-09-09T10:35:01;3.45;;;1.77;;
47659;SDS011;33403;43.608;1.458;2022-09-09T10:40:02;2.10;;;1.45;;
47659;SDS011;33403;43.608;1.458;2022-09-09T10:42:30;2.33;;;1.40;;
47659;SDS011;33403;43.608;1.458;2022-09-09T10:47:34;1.80;;;1.20;;
47659;SDS011;33403;43.608;1.458;2022-09-09T10:52:48;2.50;;;1.30;;
47659;SDS011;33403;43.608;1.458;2022-09-09T10:55:20;1.75;;;1.23;;
47659;SDS011;33403;43.608;1.458;2022-09-09T10:57:49;2.53;;;1.33;;
47659;SDS011;33403;43.608;1.458;2022-09-09T11:00:24;2.08;;;1.30;;
47659;SDS011;33403;43.608;1.458;2022-09-09T11:03:15;3.22;;;1.38;;
47659;SDS011;33403;43.608;1.458;2022-09-09T11:08:10;4.20;;;1.65;;
47659;SDS011;33403;43.608;1.458;2022-09-09T11:10:39;2.40;;;1.40;;
47659;SDS011;33403;43.608;1.458;2022-09-09T11:13:11;3.08;;;1.45;;
47659;SDS011;33403;43.608;1.458;2022-09-09T11:15:49;2.38;;;1.30;;
47659;SDS011;33403;43.608;1.458;2022-09-09T11:18:19;2.38;;;1.45;;
47659;SDS011;33403;43.608;1.458;2022-09-09T11:20:47;5.03;;;1.83;;
47659;SDS011;33403;43.608;1.458;2022-09-09T11:23:22;2.97;;;1.65;;
47659;SDS011;33403;43.608;1.458;2022-09-09T11:25:57;4.03;;;2.03;;
47659;SDS011;33403;43.608;1.458;2022-09-09T11:34:01;3.92;;;2.20;;
47659;SDS011;33403;43.608;1.458;2022-09-09T11:41:40;2.58;;;1.85;;
47659;SDS011;33403;43.608;1.458;2022-09-09T11:44:16;3.55;;;2.00;;
47659;SDS011;33403;43.608;1.458;2022-09-09T11:46:43;2.47;;;1.60;;
47659;SDS011;33403;43.608;1.458;2022-09-09T11:51:56;3.22;;;1.60;;
47659;SDS011;33403;43.608;1.458;2022-09-09T11:54:32;2.42;;;1.60;;
47659;SDS011;33403;43.608;1.458;2022-09-09T11:57:04;3.97;;;1.67;;
47659;SDS011;33403;43.608;1.458;2022-09-09T11:59:31;3.13;;;1.60;;
47659;SDS011;33403;43.608;1.458;2022-09-09T12:02:00;3.60;;;1.70;;
47659;SDS011;33403;43.608;1.458;2022-09-09T12:04:32;2.60;;;1.73;;
47659;SDS011;33403;43.608;1.458;2022-09-09T12:06:59;3.65;;;1.90;;
47659;SDS011;33403;43.608;1.458;2022-09-09T12:09:29;5.80;;;1.95;;
47659;SDS011;33403;43.608;1.458;2022-09-09T12:19:36;4.35;;;1.58;;
47659;SDS011;33403;43.608;1.458;2022-09-09T12:27:34;4.60;;;1.85;;
47659;SDS011;33403;43.608;1.458;2022-09-09T12:30:09;3.60;;;1.70;;
47659;SDS011;33403;43.608;1.458;2022-09-09T12:32:35;4.65;;;1.77;;
47659;SDS011;33403;43.608;1.458;2022-09-09T12:35:03;4.38;;;1.73;;
47659;SDS011;33403;43.608;1.458;2022-09-09T12:37:36;3.75;;;1.75;;
47659;SDS011;33403;43.608;1.458;2022-09-09T12:40:14;3.72;;;1.63;;
47659;SDS011;33403;43.608;1.458;2022-09-09T12:42:44;5.15;;;1.90;;
47659;SDS011;33403;43.608;1.458;2022-09-09T12:45:20;5.38;;;1.80;;
47659;SDS011;33403;43.608;1.458;2022-09-09T12:50:22;2.72;;;1.60;;
47659;SDS011;33403;43.608;1.458;2022-09-09T12:52:53;3.28;;;1.65;;
47659;SDS011;33403;43.608;1.458;2022-09-09T12:55:21;4.25;;;1.70;;
47659;SDS011;33403;43.608;1.458;2022-09-09T12:57:50;6.05;;;1.80;;
47659;SDS011;33403;43.608;1.458;2022-09-09T13:00:23;4.53;;;1.77;;
47659;SDS011;33403;43.608;1.458;2022-09-09T13:05:26;3.08;;;1.73;;
47659;SDS011;33403;43.608;1.458;2022-09-09T13:08:00;3.97;;;1.30;;
47659;SDS011;33403;43.608;1.458;2022-09-09T13:10:27;4.90;;;1.88;;
47659;SDS011;33403;43.608;1.458;2022-09-09T13:12:54;4.28;;;1.45;;
47659;SDS011;33403;43.608;1.458;2022-09-09T13:15:22;3.05;;;1.42;;
47659;SDS011;33403;43.608;1.458;2022-09-09T13:17:58;5.07;;;1.63;;
47659;SDS011;33403;43.608;1.458;2022-09-09T13:20:26;3.00;;;1.50;;
47659;SDS011;33403;43.608;1.458;2022-09-09T13:22:53;4.00;;;1.60;;
47659;SDS011;33403;43.608;1.458;2022-09-09T13:25:21;3.85;;;1.50;;
47659;SDS011;33403;43.608;1.458;2022-09-09T13:27:54;4.45;;;1.35;;
47659;SDS011;33403;43.608;1.458;2022-09-09T13:35:46;4.97;;;1.52;;
47659;SDS011;33403;43.608;1.458;2022-09-09T13:38:14;2.60;;;1.60;;
47659;SDS011;33403;43.608;1.458;2022-09-09T13:40:40;3.40;;;1.30;;
47659;SDS011;33403;43.608;1.458;2022-09-09T13:43:21;4.10;;;1.50;;
47659;SDS011;33403;43.608;1.458;2022-09-09T13:46:04;4.32;;;1.30;;
47659;SDS011;33403;43.608;1.458;2022-09-09T13:48:31;3.53;;;1.33;;
47659;SDS011;33403;43.608;1.458;2022-09-09T13:50:57;4.90;;;1.40;;
47659;SDS011;33403;43.608;1.458;2022-09-09T13:53:24;2.35;;;1.30;;
47659;SDS011;33403;43.608;1.458;2022-09-09T13:55:50;4.40;;;1.55;;
47659;SDS011;33403;43.608;1.458;2022-09-09T13:58:17;2.22;;;1.35;;
47659;SDS011;33403;43.608;1.458;2022-09-09T14:00:44;4.53;;;1.70;;
47659;SDS011;33403;43.608;1.458;2022-09-09T14:03:10;2.85;;;1.40;;
47659;SDS011;33403;43.608;1.458;2022-09-09T14:05:36;3.63;;;1.48;;
47659;SDS011;33403;43.608;1.458;2022-09-09T14:08:06;4.75;;;1.80;;
47659;SDS011;33403;43.608;1.458;2022-09-09T14:10:32;3.30;;;1.40;;
47659;SDS011;33403;43.608;1.458;2022-09-09T14:13:00;4.18;;;1.50;;
47659;SDS011;33403;43.608;1.458;2022-09-09T14:15:26;3.58;;;1.50;;
47659;SDS011;33403;43.608;1.458;2022-09-09T14:17:53;3.08;;;1.40;;
47659;SDS011;33403;43.608;1.458;2022-09-09T14:20:19;3.20;;;1.30;;
47659;SDS011;33403;43.608;1.458;2022-09-09T14:22:45;1.85;;;1.27;;
47659;SDS011;33403;43.608;1.458;2022-09-09T14:25:11;3.80;;;1.30;;
47659;SDS011;33403;43.608;1.458;2022-09-09T14:27:38;3.00;;;1.50;;
47659;SDS011;33403;43.608;1.458;2022-09-09T14:30:05;4.65;;;1.55;;
47659;SDS011;33403;43.608;1.458;2022-09-09T14:32:31;2.55;;;1.48;;
47659;SDS011;33403;43.608;1.458;2022-09-09T14:34:58;2.70;;;1.38;;
47659;SDS011;33403;43.608;1.458;2022-09-09T14:37:24;2.50;;;1.45;;
47659;SDS011;33403;43.608;1.458;2022-09-09T14:39:51;4.18;;;1.55;;
47659;SDS011;33403;43.608;1.458;2022-09-09T14:42:17;3.90;;;1.70;;
47659;SDS011;33403;43.608;1.458;2022-09-09T14:44:43;2.65;;;1.50;;
47659;SDS011;33403;43.608;1.458;2022-09-09T14:47:09;3.17;;;1.60;;
47659;SDS011;33403;43.608;1.458;2022-09-09T14:49:36;3.70;;;1.70;;
47659;SDS011;33403;43.608;1.458;2022-09-09T14:52:02;3.05;;;1.35;;
47659;SDS011;33403;43.608;1.458;2022-09-09T14:54:28;4.93;;;1.73;;
47659;SDS011;33403;43.608;1.458;2022-09-09T14:56:55;5.22;;;1.60;;
47659;SDS011;33403;43.608;1.458;2022-09-09T14:59:21;6.82;;;2.28;;
47659;SDS011;33403;43.608;1.458;2022-09-09T15:01:47;5.05;;;1.70;;
47659;SDS011;33403;43.608;1.458;2022-09-09T15:04:13;3.20;;;1.77;;
47659;SDS011;33403;43.608;1.458;2022-09-09T15:06:40;4.28;;;1.70;;
47659;SDS011;33403;43.608;1.458;2022-09-09T15:09:09;3.10;;;1.90;;
47659;SDS011;33403;43.608;1.458;2022-09-09T15:11:35;3.30;;;1.45;;
47659;SDS011;33403;43.608;1.458;2022-09-09T15:14:05;2.50;;;1.42;;
47659;SDS011;33403;43.608;1.458;2022-09-09T15:16:31;2.78;;;1.73;;
47659;SDS011;33403;43.608;1.458;2022-09-09T15:18:58;1.52;;;1.10;;
47659;SDS011;33403;43.608;1.458;2022-09-09T15:21:25;2.85;;;1.67;;
47659;SDS011;33403;43.608;1.458;2022-09-09T15:23:51;3.95;;;1.60;;
47659;SDS011;33403;43.608;1.458;2022-09-09T15:26:17;3.35;;;1.50;;
47659;SDS011;33403;43.608;1.458;2022-09-09T15:28:44;2.30;;;1.50;;
47659;SDS011;33403;43.608;1.458;2022-09-09T15:31:19;2.25;;;1.50;;
47659;SDS011;33403;43.608;1.458;2022-09-09T15:33:47;2.20;;;1.42;;
47659;SDS011;33403;43.608;1.458;2022-09-09T15:38:42;3.58;;;1.60;;
47659;SDS011;33403;43.608;1.458;2022-09-09T15:41:09;3.47;;;1.63;;
47659;SDS011;33403;43.608;1.458;2022-09-09T15:43:35;3.63;;;1.60;;
47659;SDS011;33403;43.608;1.458;2022-09-09T15:46:05;3.92;;;1.60;;
47659;SDS011;33403;43.608;1.458;2022-09-09T15:48:34;2.78;;;1.40;;
47659;SDS011;33403;43.608;1.458;2022-09-09T15:51:01;2.92;;;1.38;;
47659;SDS011;33403;43.608;1.458;2022-09-09T15:53:28;5.45;;;1.92;;
47659;SDS011;33403;43.608;1.458;2022-09-09T15:55:55;3.25;;;1.60;;
47659;SDS011;33403;43.608;1.458;2022-09-09T15:58:21;6.65;;;1.90;;
47659;SDS011;33403;43.608;1.458;2022-09-09T16:00:47;3.95;;;1.85;;
47659;SDS011;33403;43.608;1.458;2022-09-09T16:03:13;4.60;;;2.00;;
47659;SDS011;33403;43.608;1.458;2022-09-09T16:05:39;2.88;;;1.52;;
47659;SDS011;33403;43.608;1.458;2022-09-09T16:08:05;2.88;;;1.45;;
47659;SDS011;33403;43.608;1.458;2022-09-09T16:10:31;3.58;;;1.73;;
47659;SDS011;33403;43.608;1.458;2022-09-09T16:12:57;5.75;;;1.60;;
47659;SDS011;33403;43.608;1.458;2022-09-09T16:15:23;2.47;;;1.50;;
47659;SDS011;33403;43.608;1.458;2022-09-09T16:17:52;7.78;;;1.88;;
47659;SDS011;33403;43.608;1.458;2022-09-09T16:20:19;5.20;;;1.65;;
47659;SDS011;33403;43.608;1.458;2022-09-09T16:22:45;6.80;;;1.92;;
47659;SDS011;33403;43.608;1.458;2022-09-09T16:25:11;4.57;;;1.73;;
47659;SDS011;33403;43.608;1.458;2022-09-09T16:27:37;3.75;;;1.70;;
47659;SDS011;33403;43.608;1.458;2022-09-09T16:30:03;4.22;;;1.60;;
47659;SDS011;33403;43.608;1.458;2022-09-09T16:32:29;3.97;;;1.63;;
47659;SDS011;33403;43.608;1.458;2022-09-09T16:34:55;2.80;;;1.35;;
47659;SDS011;33403;43.608;1.458;2022-09-09T16:37:22;2.55;;;1.60;;
47659;SDS011;33403;43.608;1.458;2022-09-09T16:39:48;5.25;;;1.92;;
47659;SDS011;33403;43.608;1.458;2022-09-09T16:42:15;3.35;;;1.50;;
47659;SDS011;33403;43.608;1.458;2022-09-09T16:44:41;3.42;;;1.55;;
47659;SDS011;33403;43.608;1.458;2022-09-09T16:47:07;3.00;;;1.50;;
47659;SDS011;33403;43.608;1.458;2022-09-09T16:49:33;3.00;;;1.52;;
47659;SDS011;33403;43.608;1.458;2022-09-09T16:52:00;5.05;;;1.70;;
47659;SDS011;33403;43.608;1.458;2022-09-09T16:54:26;4.13;;;1.50;;
47659;SDS011;33403;43.608;1.458;2022-09-09T16:56:52;4.38;;;1.50;;
47659;SDS011;33403;43.608;1.458;2022-09-09T16:59:19;5.05;;;1.30;;
47659;SDS011;33403;43.608;1.458;2022-09-09T17:01:46;3.42;;;1.50;;
47659;SDS011;33403;43.608;1.458;2022-09-09T17:04:14;3.60;;;1.52;;
47659;SDS011;33403;43.608;1.458;2022-09-09T17:06:45;4.78;;;1.45;;
47659;SDS011;33403;43.608;1.458;2022-09-09T17:09:11;3.85;;;1.60;;